createdAt,value
2019-03-15T00:01:00.816Z,95.77
2019-03-15T00:03:27.848Z,95.85
2019-03-15T00:05:55.224Z,95.88
2019-03-15T00:08:23.483Z,95.95
2019-03-15T00:10:50.534Z,96.00
2019-03-15T00:13:17.578Z,96.04
2019-03-15T00:15:44.631Z,96.10
2019-03-15T00:18:11.917Z,96.02
2019-03-15T00:20:38.977Z,96.02
2019-03-15T00:23:06.285Z,96.03
2019-03-15T00:25:33.341Z,96.01
2019-03-15T00:28:00.384Z,96.00
2019-03-15T00:30:27.448Z,96.01
2019-03-15T00:32:54.784Z,95.99
2019-03-15T00:35:21.894Z,96.00
2019-03-15T00:37:48.954Z,95.95
2019-03-15T00:40:16.747Z,95.88
2019-03-15T00:42:44.117Z,95.83
2019-03-15T00:45:11.166Z,95.82
2019-03-15T00:47:38.216Z,95.82
2019-03-15T00:50:05.552Z,95.77
2019-03-15T00:52:32.907Z,95.75
2019-03-15T00:55:00.482Z,95.68
2019-03-15T00:57:27.566Z,95.65
2019-03-15T00:59:54.872Z,95.61
2019-03-15T01:02:22.228Z,95.53
2019-03-15T01:04:49.474Z,95.48
2019-03-15T01:07:16.527Z,95.40
2019-03-15T01:09:43.881Z,95.33
2019-03-15T01:12:11.190Z,95.34
2019-03-15T01:14:38.228Z,95.30
2019-03-15T01:17:05.637Z,95.24
2019-03-15T01:19:32.676Z,95.19
2019-03-15T01:22:00.772Z,95.22
2019-03-15T01:24:28.110Z,95.29
2019-03-15T01:26:56.128Z,95.27
2019-03-15T01:29:23.452Z,95.25
2019-03-15T01:31:50.795Z,95.23
2019-03-15T01:34:18.147Z,95.21
2019-03-15T01:36:45.442Z,95.21
2019-03-15T01:39:12.767Z,95.16
2019-03-15T01:41:40.111Z,95.08
2019-03-15T01:44:07.481Z,95.02
2019-03-15T01:46:34.822Z,94.88
2019-03-15T01:49:02.179Z,94.64
2019-03-15T01:51:29.215Z,94.61
2019-03-15T01:53:56.579Z,94.79
2019-03-15T01:56:25.128Z,94.97
2019-03-15T01:58:52.185Z,94.90
2019-03-15T02:01:19.582Z,95.06
2019-03-15T02:03:46.937Z,95.29
2019-03-15T02:06:13.974Z,95.49
2019-03-15T02:08:41.323Z,95.57
2019-03-15T02:11:08.677Z,95.57
2019-03-15T02:13:36.095Z,95.55
2019-03-15T02:16:03.088Z,95.55
2019-03-15T02:18:30.453Z,95.53
2019-03-15T02:20:57.577Z,95.33
2019-03-15T02:23:24.621Z,95.18
2019-03-15T02:25:52.037Z,95.11
2019-03-15T02:28:19.346Z,95.21
2019-03-15T02:30:46.699Z,95.33
2019-03-15T02:33:13.827Z,95.34
2019-03-15T02:35:41.208Z,95.37
2019-03-15T02:38:08.577Z,95.39
2019-03-15T02:40:35.611Z,95.34
2019-03-15T02:43:02.671Z,95.24
2019-03-15T02:45:30.013Z,95.16
2019-03-15T02:47:57.380Z,95.16
2019-03-15T02:50:24.400Z,95.06
2019-03-15T02:52:51.768Z,95.05
2019-03-15T02:55:18.812Z,95.01
2019-03-15T02:57:46.192Z,95.08
2019-03-15T03:00:13.989Z,95.15
2019-03-15T03:02:41.599Z,95.18
2019-03-15T03:05:08.632Z,95.26
2019-03-15T03:07:35.671Z,95.28
2019-03-15T03:10:02.732Z,95.40
2019-03-15T03:12:30.918Z,95.46
2019-03-15T03:14:58.366Z,95.48
2019-03-15T03:17:26.015Z,95.45
2019-03-15T03:19:54.100Z,95.48
2019-03-15T03:22:21.122Z,95.45
2019-03-15T03:24:48.172Z,95.31
2019-03-15T03:27:15.565Z,95.29
2019-03-15T03:29:42.612Z,95.24
2019-03-15T03:32:09.648Z,95.06
2019-03-15T03:34:36.704Z,95.03
2019-03-15T03:37:03.729Z,94.92
2019-03-15T03:39:31.109Z,94.82
2019-03-15T03:41:58.468Z,94.74
2019-03-15T03:44:25.508Z,94.74
2019-03-15T03:46:52.884Z,94.68
2019-03-15T03:49:19.937Z,94.54
2019-03-15T03:51:46.970Z,94.46
2019-03-15T03:54:14.317Z,94.40
2019-03-15T03:56:41.595Z,94.24
2019-03-15T03:59:08.885Z,94.12
2019-03-15T04:01:36.277Z,94.07
2019-03-15T04:04:03.330Z,93.99
2019-03-15T04:06:30.411Z,93.91
2019-03-15T04:08:57.460Z,93.59
2019-03-15T04:11:24.780Z,93.41
2019-03-15T04:13:51.826Z,93.43
2019-03-15T04:16:19.131Z,93.36
2019-03-15T04:18:46.177Z,93.35
2019-03-15T04:21:13.217Z,93.30
2019-03-15T04:23:40.631Z,93.36
2019-03-15T04:26:08.645Z,93.41
2019-03-15T04:28:35.944Z,93.39
2019-03-15T04:31:03.309Z,93.48
2019-03-15T04:33:30.441Z,93.52
2019-03-15T04:35:57.832Z,93.72
2019-03-15T04:38:25.169Z,93.73
2019-03-15T04:40:52.523Z,93.71
2019-03-15T04:43:19.902Z,93.70
2019-03-15T04:45:47.254Z,93.65
2019-03-15T04:48:14.590Z,93.63
2019-03-15T04:50:41.902Z,93.52
2019-03-15T04:53:09.317Z,93.42
2019-03-15T04:55:42.601Z,93.38
2019-03-15T04:58:09.949Z,93.40
2019-03-15T05:00:37.304Z,93.41
2019-03-15T05:03:04.661Z,93.32
2019-03-15T05:05:31.720Z,93.19
2019-03-15T05:07:58.757Z,93.19
2019-03-15T05:10:25.809Z,93.32
2019-03-15T05:12:58.383Z,93.34
2019-03-15T05:15:25.757Z,93.40
2019-03-15T05:17:54.217Z,93.36
2019-03-15T05:20:21.581Z,93.42
2019-03-15T05:22:49.154Z,93.47
2019-03-15T05:25:16.204Z,93.46
2019-03-15T05:27:43.236Z,93.46
2019-03-15T05:30:10.590Z,93.47
2019-03-15T05:32:40.090Z,93.54
2019-03-15T05:35:07.141Z,93.47
2019-03-15T05:37:34.178Z,93.44
2019-03-15T05:40:01.543Z,93.43
2019-03-15T05:42:28.581Z,93.49
2019-03-15T05:44:55.947Z,93.27
2019-03-15T05:47:22.997Z,93.26
2019-03-15T05:49:50.270Z,92.95
2019-03-15T05:52:17.318Z,92.88
2019-03-15T05:54:44.653Z,92.85
2019-03-15T05:57:11.960Z,92.85
2019-03-15T05:59:38.997Z,92.88
2019-03-15T06:02:06.052Z,92.85
2019-03-15T06:04:33.377Z,92.88
2019-03-15T06:07:00.424Z,92.87
2019-03-15T06:09:27.459Z,92.83
2019-03-15T06:11:54.679Z,92.83
2019-03-15T06:14:21.694Z,92.83
2019-03-15T06:16:48.743Z,92.77
2019-03-15T06:19:16.018Z,92.86
2019-03-15T06:21:43.408Z,92.95
2019-03-15T06:24:10.790Z,93.10
2019-03-15T06:26:38.097Z,93.16
2019-03-15T06:29:05.475Z,93.29
2019-03-15T06:31:32.831Z,93.14
2019-03-15T06:34:00.178Z,92.97
2019-03-15T06:36:27.229Z,93.24
2019-03-15T06:38:54.581Z,93.19
2019-03-15T06:41:21.880Z,93.12
2019-03-15T06:43:49.208Z,93.24
2019-03-15T06:46:16.508Z,93.34
2019-03-15T06:48:45.250Z,93.36
2019-03-15T06:51:12.793Z,93.28
2019-03-15T06:53:39.913Z,93.27
2019-03-15T06:56:06.946Z,93.13
2019-03-15T06:58:34.246Z,92.95
2019-03-15T07:01:01.616Z,93.00
2019-03-15T07:03:28.972Z,93.07
2019-03-15T07:05:56.001Z,93.14
2019-03-15T07:08:23.354Z,93.11
2019-03-15T07:10:50.708Z,92.85
2019-03-15T07:13:18.066Z,92.99
2019-03-15T07:15:45.095Z,93.20
2019-03-15T07:18:12.145Z,93.29
2019-03-15T07:20:39.182Z,93.26
2019-03-15T07:23:06.478Z,93.32
2019-03-15T07:25:33.836Z,93.08
2019-03-15T07:28:01.175Z,92.90
2019-03-15T07:30:28.206Z,92.88
2019-03-15T07:32:56.474Z,92.75
2019-03-15T07:35:24.265Z,92.85
2019-03-15T07:37:51.387Z,92.91
2019-03-15T07:40:18.550Z,92.97
2019-03-15T07:42:45.551Z,92.71
2019-03-15T07:45:12.583Z,92.77
2019-03-15T07:47:39.911Z,92.74
2019-03-15T07:50:06.943Z,92.47
2019-03-15T07:52:34.312Z,92.12
2019-03-15T07:55:01.699Z,92.04
2019-03-15T07:57:28.969Z,91.80
2019-03-15T07:59:56.275Z,91.96
2019-03-15T08:02:23.629Z,91.87
2019-03-15T08:04:51.917Z,91.89
2019-03-15T08:07:20.182Z,91.45
2019-03-15T08:09:51.062Z,91.54
2019-03-15T08:12:16.917Z,91.05
2019-03-15T08:14:43.946Z,91.12
2019-03-15T08:17:10.992Z,91.24
2019-03-15T08:19:38.311Z,91.20
2019-03-15T08:22:05.356Z,91.26
2019-03-15T08:24:32.387Z,91.20
2019-03-15T08:26:59.415Z,91.12
2019-03-15T08:29:26.793Z,90.89
2019-03-15T08:31:54.269Z,90.27
2019-03-15T08:34:21.602Z,90.52
2019-03-15T08:36:48.635Z,90.44
2019-03-15T08:39:15.681Z,90.37
2019-03-15T08:41:43.053Z,90.33
2019-03-15T08:44:10.454Z,89.97
2019-03-15T08:46:37.766Z,89.73
2019-03-15T08:49:04.816Z,89.29
2019-03-15T08:51:32.169Z,89.10
2019-03-15T08:53:59.520Z,89.34
2019-03-15T08:56:26.892Z,89.66
2019-03-15T08:58:54.231Z,89.18
2019-03-15T09:01:23.800Z,89.02
2019-03-15T09:03:50.376Z,89.06
2019-03-15T09:06:17.749Z,88.87
2019-03-15T09:08:45.084Z,89.26
2019-03-15T09:11:12.121Z,89.33
2019-03-15T09:13:39.162Z,88.95
2019-03-15T09:16:06.556Z,88.89
2019-03-15T09:18:34.272Z,88.61
2019-03-15T09:21:01.314Z,88.14
2019-03-15T09:23:28.707Z,87.80
2019-03-15T09:25:56.068Z,88.16
2019-03-15T09:28:23.118Z,86.82
2019-03-15T09:30:50.670Z,87.47
2019-03-15T09:33:17.718Z,86.93
2019-03-15T09:35:44.749Z,86.86
2019-03-15T09:38:12.122Z,86.80
2019-03-15T09:40:39.482Z,87.52
2019-03-15T09:43:06.512Z,86.83
2019-03-15T09:45:33.560Z,87.41
2019-03-15T09:48:00.587Z,87.72
2019-03-15T09:50:34.215Z,87.42
2019-03-15T09:52:56.661Z,87.74
2019-03-15T09:55:32.845Z,87.00
2019-03-15T09:57:52.745Z,87.31
2019-03-15T10:00:19.798Z,87.23
2019-03-15T10:02:46.898Z,87.20
2019-03-15T10:05:13.984Z,87.51
2019-03-15T10:07:43.438Z,87.93
2019-03-15T10:10:13.802Z,88.47
2019-03-15T10:12:38.745Z,88.87
2019-03-15T10:15:07.956Z,89.14
2019-03-15T10:17:34.828Z,88.93
2019-03-15T10:20:01.890Z,88.95
2019-03-15T10:22:28.899Z,88.86
2019-03-15T10:24:55.944Z,88.60
2019-03-15T10:27:22.991Z,88.12
2019-03-15T10:29:50.016Z,87.91
2019-03-15T10:32:17.314Z,88.04
2019-03-15T10:34:44.362Z,88.23
2019-03-15T10:37:11.389Z,88.25
2019-03-15T10:39:38.437Z,86.78
2019-03-15T10:42:05.468Z,87.26
2019-03-15T10:44:32.518Z,87.29
2019-03-15T10:46:59.549Z,87.50
2019-03-15T10:49:26.960Z,87.69
2019-03-15T10:51:53.989Z,87.84
2019-03-15T10:54:21.361Z,87.29
2019-03-15T10:56:48.462Z,87.09
2019-03-15T10:59:15.863Z,87.13
2019-03-15T11:01:42.895Z,87.09
2019-03-15T11:04:10.301Z,87.54
2019-03-15T11:06:37.621Z,88.23
2019-03-15T11:09:04.653Z,88.85
2019-03-15T11:11:31.700Z,89.30
2019-03-15T11:13:59.071Z,89.41
2019-03-15T11:16:26.430Z,89.29
2019-03-15T11:18:53.460Z,88.89
2019-03-15T11:21:20.508Z,88.92
2019-03-15T11:23:47.539Z,89.12
2019-03-15T11:26:14.923Z,88.98
2019-03-15T11:28:42.296Z,89.36
2019-03-15T11:31:10.767Z,89.70
2019-03-15T11:33:37.797Z,90.21
2019-03-15T11:36:05.809Z,90.58
2019-03-15T11:38:33.137Z,90.55
2019-03-15T11:41:00.488Z,90.71
2019-03-15T11:43:27.519Z,90.75
2019-03-15T11:45:54.894Z,90.79
2019-03-15T11:48:22.268Z,90.93
2019-03-15T11:50:49.311Z,91.26
2019-03-15T11:53:18.945Z,91.56
2019-03-15T11:55:45.341Z,92.01
2019-03-15T11:58:12.376Z,91.91
2019-03-15T12:00:39.425Z,92.04
2019-03-15T12:03:06.707Z,92.14
2019-03-15T12:05:33.761Z,92.12
2019-03-15T12:08:12.685Z,92.09
2019-03-15T12:10:39.732Z,92.11
2019-03-15T12:13:06.764Z,91.95
2019-03-15T12:15:36.319Z,92.14
2019-03-15T12:18:02.899Z,92.20
2019-03-15T12:20:30.256Z,92.24
2019-03-15T12:22:57.287Z,92.44
2019-03-15T12:25:24.663Z,92.58
2019-03-15T12:27:52.018Z,92.50
2019-03-15T12:30:19.059Z,92.69
2019-03-15T12:32:46.098Z,92.52
2019-03-15T12:35:13.385Z,92.29
2019-03-15T12:37:40.419Z,92.32
2019-03-15T12:40:07.461Z,92.43
2019-03-15T12:42:34.811Z,92.75
2019-03-15T12:45:01.875Z,92.89
2019-03-15T12:47:28.889Z,92.85
2019-03-15T12:49:55.937Z,93.04
2019-03-15T12:52:23.315Z,93.14
2019-03-15T12:54:50.361Z,93.21
2019-03-15T12:57:17.713Z,93.34
2019-03-15T12:59:44.982Z,93.44
2019-03-15T13:02:12.325Z,93.59
2019-03-15T13:04:39.356Z,93.71
2019-03-15T13:07:06.400Z,93.74
2019-03-15T13:09:33.436Z,93.80
2019-03-15T13:12:00.819Z,93.78
2019-03-15T13:14:28.100Z,93.85
2019-03-15T13:16:55.428Z,93.78
2019-03-15T13:19:22.804Z,93.83
2019-03-15T13:21:49.852Z,93.82
2019-03-15T13:24:16.880Z,93.81
2019-03-15T13:26:44.256Z,93.95
2019-03-15T13:29:11.589Z,94.12
2019-03-15T13:31:38.637Z,94.13
2019-03-15T13:34:05.996Z,94.17
2019-03-15T13:36:33.043Z,94.07
2019-03-15T13:39:00.077Z,94.06
2019-03-15T13:41:27.446Z,93.97
2019-03-15T13:43:54.901Z,94.05
2019-03-15T13:46:22.257Z,94.12
2019-03-15T13:48:49.715Z,94.07
2019-03-15T13:51:16.765Z,94.10
2019-03-15T13:53:43.797Z,93.71
2019-03-15T13:56:11.168Z,93.96
2019-03-15T13:58:38.543Z,94.06
2019-03-15T14:01:05.595Z,94.01
2019-03-15T14:03:32.623Z,94.10
2019-03-15T14:05:59.972Z,94.13
2019-03-15T14:08:27.328Z,94.14
2019-03-15T14:10:54.706Z,94.03
2019-03-15T14:13:22.058Z,94.07
2019-03-15T14:15:49.365Z,93.97
2019-03-15T14:18:16.658Z,94.04
2019-03-15T14:20:43.708Z,94.17
2019-03-15T14:23:10.986Z,94.15
2019-03-15T14:25:39.104Z,94.24
2019-03-15T14:28:06.474Z,94.18
2019-03-15T14:30:33.503Z,93.91
2019-03-15T14:33:00.883Z,93.95
2019-03-15T14:35:27.922Z,93.96
2019-03-15T14:37:55.004Z,93.97
2019-03-15T14:40:22.103Z,93.93
2019-03-15T14:42:50.271Z,93.95
2019-03-15T14:45:17.596Z,93.72
2019-03-15T14:47:45.987Z,93.71
2019-03-15T14:50:13.291Z,93.83
2019-03-15T14:52:40.436Z,93.73
2019-03-15T14:55:07.437Z,93.69
2019-03-15T14:57:35.608Z,93.88
2019-03-15T15:00:02.588Z,94.13
2019-03-15T15:02:30.003Z,94.13
2019-03-15T15:04:57.027Z,94.16
2019-03-15T15:07:24.375Z,94.23
2019-03-15T15:09:52.227Z,94.25
2019-03-15T15:12:19.788Z,94.24
2019-03-15T15:14:46.825Z,94.24
2019-03-15T15:17:14.192Z,94.26
2019-03-15T15:19:41.563Z,94.15
2019-03-15T15:22:08.613Z,94.19
2019-03-15T15:24:35.967Z,94.26
2019-03-15T15:27:03.304Z,94.21
2019-03-15T15:29:30.335Z,94.02
2019-03-15T15:31:57.382Z,93.95
2019-03-15T15:34:24.409Z,93.73
2019-03-15T15:36:51.453Z,93.40
2019-03-15T15:39:18.764Z,93.48
2019-03-15T15:41:46.104Z,93.46
2019-03-15T15:44:13.136Z,93.63
2019-03-15T15:46:40.508Z,93.64
2019-03-15T15:49:07.883Z,93.60
2019-03-15T15:51:34.931Z,93.59
2019-03-15T15:54:01.959Z,93.55
2019-03-15T15:56:29.009Z,93.50
2019-03-15T15:58:56.359Z,93.16
2019-03-15T16:01:23.739Z,93.16
2019-03-15T16:06:32.169Z,93.03
2019-03-15T16:08:59.203Z,92.97
2019-03-15T16:11:26.551Z,93.08
2019-03-15T16:13:53.600Z,92.65
2019-03-15T16:16:20.656Z,92.81
2019-03-15T16:18:48.070Z,93.11
2019-03-15T16:21:15.492Z,92.83
2019-03-15T16:23:42.541Z,92.84
2019-03-15T16:26:09.863Z,92.96
2019-03-15T16:28:36.935Z,92.80
2019-03-15T16:31:03.965Z,92.70
2019-03-15T16:33:31.467Z,92.52
2019-03-15T16:35:58.447Z,92.54
2019-03-15T16:38:25.492Z,92.72
2019-03-15T16:40:52.868Z,92.79
2019-03-15T16:43:22.191Z,92.61
2019-03-15T16:46:07.805Z,92.73
2019-03-15T16:48:35.236Z,92.61
2019-03-15T16:51:19.721Z,92.55
2019-03-15T16:56:32.683Z,92.40
2019-03-15T17:04:06.650Z,91.79
2019-03-15T17:06:41.924Z,91.47
2019-03-15T17:09:10.102Z,91.83
2019-03-15T17:11:48.228Z,91.89
2019-03-15T17:16:54.298Z,91.86
2019-03-15T17:19:37.716Z,91.65
2019-03-15T17:22:04.989Z,91.83
2019-03-15T17:24:36.415Z,92.46
2019-03-15T17:27:04.591Z,92.80
2019-03-15T17:29:32.778Z,92.83
2019-03-15T17:32:01.959Z,93.07
2019-03-15T17:39:34.807Z,92.91
2019-03-15T17:42:03.059Z,93.16
2019-03-15T17:44:30.589Z,93.15
2019-03-15T17:47:01.855Z,92.83
2019-03-15T17:49:34.159Z,92.90
2019-03-15T17:52:02.190Z,92.66
2019-03-15T17:54:31.417Z,92.71
2019-03-15T17:57:01.619Z,92.70
2019-03-15T17:59:33.707Z,92.69
2019-03-15T18:02:03.134Z,92.70
2019-03-15T18:04:33.844Z,92.82
2019-03-15T18:10:05.273Z,93.10
2019-03-15T18:12:48.737Z,93.24
2019-03-15T18:15:16.260Z,93.48
2019-03-15T18:23:09.810Z,93.54
2019-03-15T18:25:39.276Z,93.77
2019-03-15T18:33:20.221Z,93.73
2019-03-15T18:35:48.383Z,93.72
2019-03-15T18:38:29.857Z,93.79
2019-03-15T18:40:57.030Z,93.86
2019-03-15T18:43:25.203Z,94.02
2019-03-15T18:45:53.383Z,94.11
2019-03-15T18:48:20.609Z,94.05
2019-03-15T18:50:47.783Z,93.99
2019-03-15T18:53:30.277Z,94.01
2019-03-15T18:58:39.542Z,94.07
2019-03-15T19:01:06.797Z,94.03
2019-03-15T19:03:35.207Z,93.93
2019-03-15T19:06:06.070Z,93.94
2019-03-15T19:08:33.422Z,94.00
2019-03-15T19:16:20.354Z,93.61
2019-03-15T19:18:45.916Z,93.49
2019-03-15T19:21:16.261Z,93.40
2019-03-15T19:26:33.775Z,93.54
2019-03-15T19:29:04.217Z,93.58
2019-03-15T19:31:31.479Z,93.62
2019-03-15T19:34:08.843Z,93.58
2019-03-15T19:41:54.656Z,93.65
2019-03-15T19:44:24.066Z,93.41
2019-03-15T19:49:24.643Z,93.38
2019-03-15T19:51:52.156Z,93.50
2019-03-15T19:54:20.369Z,93.41
2019-03-15T19:56:49.672Z,93.39
2019-03-15T19:59:32.656Z,93.31
2019-03-15T20:07:19.402Z,93.51
2019-03-15T20:09:46.753Z,93.54
2019-03-15T20:12:20.281Z,93.66
2019-03-15T20:14:49.533Z,93.30
2019-03-15T20:17:16.752Z,93.53
2019-03-15T20:19:43.984Z,93.83
2019-03-15T20:22:16.351Z,93.84
2019-03-15T20:24:45.660Z,93.87
2019-03-15T20:32:18.861Z,93.61
2019-03-15T20:34:52.867Z,93.57
2019-03-15T20:37:20.345Z,93.82
2019-03-15T20:39:49.561Z,94.05
2019-03-15T20:42:17.298Z,94.04
2019-03-15T20:44:45.594Z,94.06
2019-03-15T20:47:13.887Z,94.26
2019-03-15T20:49:46.421Z,94.27
2019-03-15T20:54:49.959Z,94.32
2019-03-15T20:57:17.137Z,94.39
2019-03-15T20:59:44.368Z,94.53
2019-03-15T21:02:15.839Z,94.21
2019-03-15T21:04:49.936Z,94.35
2019-03-15T21:09:51.085Z,94.32
2019-03-15T21:12:22.260Z,94.35
2019-03-15T21:14:49.493Z,94.31
2019-03-15T21:17:21.584Z,94.26
2019-03-15T21:19:49.731Z,94.21
2019-03-15T21:22:23.308Z,94.11
2019-03-15T21:24:50.479Z,94.25
2019-03-15T21:29:53.917Z,94.25
2019-03-15T21:32:21.337Z,94.11
2019-03-15T21:35:04.656Z,94.15
2019-03-15T21:37:32.220Z,94.24
2019-03-15T21:40:00.422Z,94.34
2019-03-15T21:45:17.787Z,94.29
2019-03-15T21:47:46.213Z,94.37
2019-03-15T21:50:15.440Z,94.16
2019-03-15T21:52:42.711Z,94.12
2019-03-15T21:55:16.713Z,93.95
2019-03-15T22:00:19.242Z,94.08
2019-03-15T22:02:46.835Z,94.16
2019-03-15T22:05:19.233Z,94.16
2019-03-15T22:07:50.718Z,93.99
2019-03-15T22:10:17.753Z,94.09
2019-03-15T22:15:23.471Z,94.05
2019-03-15T22:17:50.861Z,94.12
2019-03-15T22:23:09.240Z,94.04
2019-03-15T22:28:16.961Z,93.92
2019-03-15T22:30:52.173Z,94.14
2019-03-15T22:35:53.841Z,94.05
2019-03-15T22:38:26.484Z,94.12
2019-03-15T22:40:50.920Z,94.08
2019-03-15T22:45:52.195Z,94.10
2019-03-15T22:48:23.705Z,93.82
2019-03-15T22:50:51.460Z,93.89
2019-03-15T22:53:21.054Z,94.00
2019-03-15T22:55:52.398Z,94.02
2019-03-15T22:58:21.984Z,94.02
2019-03-15T23:00:50.460Z,93.51
2019-03-15T23:05:54.390Z,93.80
2019-03-15T23:08:21.698Z,93.99
2019-03-15T23:10:48.855Z,93.94
2019-03-15T23:13:16.052Z,94.02
2019-03-15T23:15:50.968Z,93.92
2019-03-15T23:18:20.310Z,93.90
2019-03-15T23:23:48.743Z,93.72
2019-03-15T23:26:24.718Z,93.66
2019-03-15T23:28:52.091Z,93.81
2019-03-15T23:31:26.189Z,93.57
2019-03-15T23:33:54.637Z,93.55
2019-03-15T23:36:21.935Z,93.55
2019-03-15T23:38:52.939Z,93.46
2019-03-15T23:41:20.209Z,93.62
2019-03-15T23:43:48.170Z,93.42
2019-03-15T23:46:15.530Z,93.74
2019-03-15T23:48:42.574Z,93.70
2019-03-15T23:51:09.913Z,93.52
2019-03-15T23:53:36.965Z,93.42
2019-03-15T23:56:04.243Z,93.56
2019-03-15T23:58:33.718Z,93.68
